Marshall Army Air Field Fort Riley(Junction City) US
ICAO: KFRI
IATA: FRI
Category: Medium
Scheduled Services: No

Elevation: 1065 ft
TransAlt. 18000 ft.

Airport Communications:
VFR ADVSY SVC:126.2
KANSAS CITY CNTR:127.35
ASOS:118.375
CTAF:126.2
RANGE CON:40.8
OPS:40.55

KFRI Zoom In..

Runways:

(A) RW 04 length 4503 ft width 100 ft
---- / hdg 44

(B) RW 22 length 4503 ft width 100 ft
---- / hdg 224

Location; KFRI
Day. 21 / Time. 04.56 Zulu
* Altimeter: 29.97
* Temperature: 22° c. 71.6°f.
* Wind from: 020° Speed 04 kn.
Dewpoint: 20° c.
Visibility: 10 Statute Miles.
Clouds: Clear (automated report).

KFRI 210456Z AUTO 02004KT 10SM CLR 22/20 A2997 RMK AO2 SLP137 T02150196


Wind From 020°
Speed 04 kn.

 
 
jpsmedia.com for Web Design worldairports.se 2018   terms of use